createdAt,value
2018-04-19T00:00:54.347Z,50.60
2018-04-19T00:01:55.387Z,50.50
2018-04-19T00:02:56.420Z,50.50
2018-04-19T00:03:57.470Z,50.50
2018-04-19T00:04:59.233Z,50.50
2018-04-19T00:06:00.270Z,50.60
2018-04-19T00:07:01.331Z,50.70
2018-04-19T00:08:02.383Z,50.60
2018-04-19T00:09:05.406Z,50.70
2018-04-19T00:10:06.460Z,50.80
2018-04-19T00:11:07.502Z,51.00
2018-04-19T00:12:08.532Z,51.20
2018-04-19T00:13:09.565Z,51.40
2018-04-19T00:14:10.596Z,51.40
2018-04-19T00:15:11.624Z,51.40
2018-04-19T00:16:12.670Z,51.40
2018-04-19T00:17:13.914Z,51.30
2018-04-19T00:18:14.950Z,51.30
2018-04-19T00:19:16.002Z,51.30
2018-04-19T00:20:17.806Z,51.50
2018-04-19T00:21:18.837Z,51.50
2018-04-19T00:22:19.894Z,51.70
2018-04-19T00:23:20.935Z,51.70
2018-04-19T00:24:22.007Z,51.40
2018-04-19T00:25:23.087Z,51.30
2018-04-19T00:26:24.179Z,51.30
2018-04-19T00:27:25.239Z,51.90
2018-04-19T00:28:26.290Z,51.60
2018-04-19T00:29:27.384Z,51.90
2018-04-19T00:30:28.447Z,52.00
2018-04-19T00:31:29.515Z,51.90
2018-04-19T00:32:30.587Z,51.90
2018-04-19T00:33:31.652Z,52.20
2018-04-19T00:34:32.759Z,52.60
2018-04-19T00:35:33.791Z,52.60
2018-04-19T00:36:34.934Z,52.70
2018-04-19T00:37:36.011Z,52.90
2018-04-19T00:38:37.087Z,52.90
2018-04-19T00:39:38.194Z,52.80
2018-04-19T00:40:39.266Z,53.10
2018-04-19T00:41:40.354Z,53.10
2018-04-19T00:42:41.415Z,53.50
2018-04-19T00:43:42.479Z,53.40
2018-04-19T00:44:43.575Z,53.50
2018-04-19T00:45:44.764Z,54.20
2018-04-19T00:46:45.888Z,54.40
2018-04-19T00:47:46.967Z,54.30
2018-04-19T00:48:48.028Z,54.40
2018-04-19T00:49:49.102Z,54.40
2018-04-19T00:50:50.177Z,54.50
2018-04-19T00:51:51.250Z,54.40
2018-04-19T00:53:04.539Z,54.30
2018-04-19T00:54:05.560Z,54.40
2018-04-19T00:55:07.582Z,54.20
2018-04-19T00:56:08.648Z,54.10
2018-04-19T00:57:09.737Z,54.10
2018-04-19T00:58:10.836Z,54.10
2018-04-19T00:59:11.891Z,54.10
2018-04-19T01:00:12.974Z,54.10
2018-04-19T01:01:14.051Z,54.10
2018-04-19T01:02:15.119Z,53.80
2018-04-19T01:03:16.196Z,53.90
2018-04-19T01:04:17.270Z,54.20
2018-04-19T01:05:18.349Z,54.10
2018-04-19T01:06:20.300Z,53.80
2018-04-19T01:07:21.373Z,53.80
2018-04-19T01:08:22.448Z,54.00
2018-04-19T01:09:23.521Z,54.00
2018-04-19T01:10:24.602Z,53.90
2018-04-19T01:11:25.676Z,54.00
2018-04-19T01:12:26.763Z,53.70
2018-04-19T01:13:27.840Z,53.60
2018-04-19T01:14:28.928Z,54.30
2018-04-19T01:15:30.028Z,54.60
2018-04-19T01:16:31.091Z,54.30
2018-04-19T01:17:32.172Z,54.30
2018-04-19T01:18:33.247Z,54.40
2018-04-19T01:19:34.325Z,54.40
2018-04-19T01:20:35.482Z,54.50
2018-04-19T01:21:36.562Z,54.50
2018-04-19T01:22:37.631Z,54.30
2018-04-19T01:23:39.446Z,54.80
2018-04-19T01:24:40.508Z,54.80
2018-04-19T01:25:42.355Z,54.40
2018-04-19T01:26:44.194Z,55.00
2018-04-19T01:27:45.257Z,54.90
2018-04-19T01:28:46.352Z,54.90
2018-04-19T01:29:47.435Z,54.90
2018-04-19T01:30:48.523Z,55.00
2018-04-19T01:31:49.596Z,55.00
2018-04-19T01:32:50.659Z,55.10
2018-04-19T01:33:51.731Z,55.30
2018-04-19T01:34:53.571Z,55.40
2018-04-19T01:36:06.933Z,55.50
2018-04-19T01:37:07.959Z,55.80
2018-04-19T01:38:09.659Z,55.70
2018-04-19T01:39:10.739Z,55.80
2018-04-19T01:40:11.812Z,56.00
2018-04-19T01:41:12.890Z,55.70
2018-04-19T01:42:14.723Z,55.60
2018-04-19T01:43:15.800Z,55.70
2018-04-19T01:44:16.870Z,56.00
2018-04-19T01:45:17.950Z,56.10
2018-04-19T01:46:19.016Z,55.60
2018-04-19T01:47:20.083Z,55.60
2018-04-19T01:48:21.146Z,55.50
2018-04-19T01:49:22.238Z,55.40
2018-04-19T01:50:23.303Z,55.50
2018-04-19T01:51:24.380Z,55.70
2018-04-19T01:52:25.463Z,55.90
2018-04-19T01:53:27.262Z,55.80
2018-04-19T01:54:28.332Z,55.90
2018-04-19T01:55:30.144Z,55.80
2018-04-19T01:56:31.210Z,55.80
2018-04-19T01:57:32.277Z,55.50
2018-04-19T01:58:33.356Z,55.80
2018-04-19T01:59:34.422Z,56.40
2018-04-19T02:00:35.494Z,56.50
2018-04-19T02:01:36.575Z,56.80
2018-04-19T02:02:37.660Z,56.70
2018-04-19T02:03:38.735Z,57.10
2018-04-19T02:04:39.798Z,57.10
2018-04-19T02:05:40.870Z,57.20
2018-04-19T02:06:41.944Z,57.10
2018-04-19T02:07:43.024Z,57.10
2018-04-19T02:08:44.109Z,57.20
2018-04-19T02:09:45.194Z,57.00
2018-04-19T02:10:46.269Z,57.00
2018-04-19T02:11:47.354Z,57.10
2018-04-19T02:12:48.430Z,57.20
2018-04-19T02:13:49.519Z,57.30
2018-04-19T02:14:50.593Z,57.20
2018-04-19T02:15:52.395Z,56.60
2018-04-19T02:16:53.480Z,56.70
2018-04-19T02:17:55.288Z,56.40
2018-04-19T02:18:56.395Z,56.40
2018-04-19T02:19:57.506Z,56.90
2018-04-19T02:20:58.559Z,57.10
2018-04-19T02:21:59.646Z,57.40
2018-04-19T02:23:00.770Z,57.30
2018-04-19T02:24:01.847Z,57.70
2018-04-19T02:25:02.935Z,57.40
2018-04-19T02:26:04.019Z,57.50
2018-04-19T02:27:05.127Z,57.50
2018-04-19T02:28:06.922Z,57.50
2018-04-19T02:29:07.979Z,57.50
2018-04-19T02:30:09.039Z,58.10
2018-04-19T02:31:10.866Z,57.40
2018-04-19T02:32:11.964Z,57.50
2018-04-19T02:33:13.044Z,57.50
2018-04-19T02:34:14.092Z,57.60
2018-04-19T02:35:15.175Z,57.70
2018-04-19T02:36:16.291Z,57.30
2018-04-19T02:37:17.360Z,57.60
2018-04-19T02:38:19.222Z,57.40
2018-04-19T02:39:20.292Z,57.80
2018-04-19T02:40:21.371Z,57.50
2018-04-19T02:41:22.435Z,57.70
2018-04-19T02:42:23.515Z,57.70
2018-04-19T02:43:24.596Z,57.70
2018-04-19T02:44:25.680Z,57.70
2018-04-19T02:45:26.774Z,57.40
2018-04-19T02:46:27.842Z,57.40
2018-04-19T02:47:28.905Z,57.60
2018-04-19T02:48:30.715Z,57.50
2018-04-19T02:49:31.799Z,57.50
2018-04-19T02:50:33.640Z,57.50
2018-04-19T02:51:34.700Z,57.50
2018-04-19T02:52:35.798Z,57.50
2018-04-19T02:53:36.857Z,58.00
2018-04-19T02:54:38.651Z,57.90
2018-04-19T02:55:39.747Z,57.90
2018-04-19T02:56:40.838Z,58.00
2018-04-19T02:57:53.568Z,58.30
2018-04-19T02:58:55.123Z,58.40
2018-04-19T02:59:56.224Z,58.30
2018-04-19T03:00:57.292Z,58.30
2018-04-19T03:01:58.346Z,58.40
2018-04-19T03:02:59.431Z,58.30
2018-04-19T03:04:01.261Z,58.40
2018-04-19T03:05:02.336Z,58.50
2018-04-19T03:06:03.395Z,58.50
2018-04-19T03:07:04.485Z,58.70
2018-04-19T03:08:06.312Z,58.80
2018-04-19T03:09:07.395Z,58.70
2018-04-19T03:10:09.211Z,58.90
2018-04-19T03:11:11.012Z,59.10
2018-04-19T03:12:12.088Z,59.10
2018-04-19T03:13:13.928Z,59.40
2018-04-19T03:14:15.050Z,59.30
2018-04-19T03:15:16.122Z,59.40
2018-04-19T03:16:17.219Z,59.30
2018-04-19T03:17:18.292Z,59.50
2018-04-19T03:18:19.362Z,59.50
2018-04-19T03:19:20.436Z,59.40
2018-04-19T03:20:21.581Z,59.60
2018-04-19T03:21:22.619Z,59.40
2018-04-19T03:22:23.709Z,59.60
2018-04-19T03:23:24.778Z,59.70
2018-04-19T03:24:25.884Z,59.90
2018-04-19T03:25:26.925Z,59.60
2018-04-19T03:26:28.742Z,59.70
2018-04-19T03:27:29.852Z,59.80
2018-04-19T03:28:30.914Z,59.90
2018-04-19T03:29:31.999Z,60.10
2018-04-19T03:30:33.078Z,60.00
2018-04-19T03:31:34.203Z,60.10
2018-04-19T03:32:35.334Z,60.90
2018-04-19T03:33:36.419Z,60.60
2018-04-19T03:34:37.498Z,60.70
2018-04-19T03:35:38.587Z,61.30
2018-04-19T03:36:39.659Z,60.60
2018-04-19T03:37:40.744Z,60.50
2018-04-19T03:38:42.554Z,60.30
2018-04-19T03:39:43.628Z,60.40
2018-04-19T03:40:45.471Z,60.80
2018-04-19T03:41:46.515Z,60.80
2018-04-19T03:42:48.354Z,61.60
2018-04-19T03:43:49.425Z,60.80
2018-04-19T03:44:50.555Z,60.90
2018-04-19T03:45:51.652Z,60.80
2018-04-19T03:46:52.756Z,61.00
2018-04-19T03:47:53.826Z,60.90
2018-04-19T03:48:54.906Z,61.10
2018-04-19T03:49:55.967Z,60.80
2018-04-19T03:50:57.028Z,61.10
2018-04-19T03:51:58.086Z,61.20
2018-04-19T03:52:59.176Z,61.10
2018-04-19T03:54:00.255Z,60.90
2018-04-19T03:55:01.310Z,60.90
2018-04-19T03:56:02.420Z,61.40
2018-04-19T03:57:03.484Z,61.70
2018-04-19T03:58:05.326Z,61.20
2018-04-19T03:59:06.424Z,61.10
2018-04-19T04:00:07.495Z,61.60
2018-04-19T04:01:08.613Z,61.50
2018-04-19T04:02:09.637Z,61.50
2018-04-19T04:03:10.704Z,61.90
2018-04-19T04:04:11.755Z,62.00
2018-04-19T04:05:12.807Z,62.00
2018-04-19T04:06:14.607Z,62.00
2018-04-19T04:07:15.662Z,62.00
2018-04-19T04:08:16.753Z,62.00
2018-04-19T04:09:17.819Z,62.00
2018-04-19T04:10:18.916Z,62.00
2018-04-19T04:11:19.973Z,62.00
2018-04-19T04:12:21.039Z,61.90
2018-04-19T04:13:22.108Z,62.10
2018-04-19T04:14:23.168Z,62.40
2018-04-19T04:15:24.252Z,61.90
2018-04-19T04:17:47.127Z,61.70
2018-04-19T04:20:33.842Z,61.90
2018-04-19T04:21:48.007Z,61.90
2018-04-19T04:23:01.247Z,61.90
2018-04-19T04:24:02.306Z,61.90
2018-04-19T04:25:03.423Z,61.90
2018-04-19T04:26:04.493Z,61.90
2018-04-19T04:27:05.552Z,61.90
2018-04-19T04:28:06.698Z,61.90
2018-04-19T04:29:08.516Z,61.90
2018-04-19T04:30:09.587Z,61.80
2018-04-19T04:31:10.701Z,61.90
2018-04-19T04:32:11.731Z,61.90
2018-04-19T04:33:12.801Z,61.90
2018-04-19T04:34:13.874Z,61.90
2018-04-19T04:35:14.998Z,61.90
2018-04-19T04:36:16.099Z,61.90
2018-04-19T04:37:17.155Z,61.90
2018-04-19T04:38:18.322Z,61.90
2018-04-19T04:39:20.154Z,62.00
2018-04-19T04:40:21.212Z,61.90
2018-04-19T04:41:23.014Z,61.90
2018-04-19T04:42:24.098Z,61.90
2018-04-19T04:43:25.212Z,61.90
2018-04-19T04:44:27.030Z,62.00
2018-04-19T04:45:28.098Z,61.90
2018-04-19T04:46:29.938Z,62.00
2018-04-19T04:47:31.015Z,61.90
2018-04-19T04:48:32.135Z,61.90
2018-04-19T04:49:33.215Z,61.90
2018-04-19T04:50:34.298Z,61.90
2018-04-19T04:51:35.446Z,61.90
2018-04-19T04:52:36.531Z,61.80
2018-04-19T04:53:37.615Z,62.10
2018-04-19T04:54:38.702Z,62.30
2018-04-19T04:55:39.800Z,62.30
2018-04-19T04:56:40.890Z,62.00
2018-04-19T04:57:42.698Z,61.80
2018-04-19T04:58:43.771Z,61.90
2018-04-19T04:59:44.860Z,61.90
2018-04-19T05:00:45.926Z,62.30
2018-04-19T05:01:47.017Z,62.30
2018-04-19T05:02:48.070Z,62.90
2018-04-19T05:03:49.155Z,62.60
2018-04-19T05:04:50.860Z,62.30
2018-04-19T05:05:51.942Z,62.40
2018-04-19T05:06:53.011Z,62.50
2018-04-19T05:07:54.101Z,62.50
2018-04-19T05:08:55.165Z,62.40
2018-04-19T05:09:56.226Z,62.50
2018-04-19T05:10:58.042Z,62.80
2018-04-19T05:11:59.127Z,62.60
2018-04-19T05:13:00.211Z,62.50
2018-04-19T05:14:01.286Z,62.50
2018-04-19T05:15:02.408Z,62.20
2018-04-19T05:16:03.484Z,62.30
2018-04-19T05:17:04.571Z,62.60
2018-04-19T05:18:05.632Z,62.30
2018-04-19T05:19:06.743Z,62.00
2018-04-19T05:20:07.836Z,62.20
2018-04-19T05:21:08.915Z,62.00
2018-04-19T05:22:09.995Z,62.00
2018-04-19T05:23:11.075Z,62.10
2018-04-19T05:24:12.136Z,62.00
2018-04-19T05:25:13.192Z,62.10
2018-04-19T05:26:14.279Z,62.10
2018-04-19T05:27:15.338Z,62.10
2018-04-19T05:28:16.411Z,61.80
2018-04-19T05:29:18.227Z,61.60
2018-04-19T05:30:19.341Z,61.60
2018-04-19T05:31:20.399Z,61.70
2018-04-19T05:32:21.487Z,61.30
2018-04-19T05:33:22.555Z,61.40
2018-04-19T05:34:23.635Z,61.10
2018-04-19T05:35:24.704Z,61.00
2018-04-19T05:36:25.770Z,61.00
2018-04-19T05:37:26.814Z,61.00
2018-04-19T05:38:27.895Z,61.00
2018-04-19T05:39:28.964Z,60.80
2018-04-19T05:40:30.047Z,61.50
2018-04-19T05:41:31.131Z,60.60
2018-04-19T05:42:32.208Z,60.60
2018-04-19T05:43:33.330Z,60.70
2018-04-19T05:44:35.146Z,60.50
2018-04-19T05:45:36.216Z,60.60
2018-04-19T05:46:38.048Z,60.90
2018-04-19T05:47:39.103Z,60.90
2018-04-19T05:48:40.166Z,60.70
2018-04-19T05:49:41.243Z,60.40
2018-04-19T05:50:42.316Z,60.20
2018-04-19T05:51:43.379Z,59.60
2018-04-19T05:52:44.443Z,60.00
2018-04-19T05:53:45.517Z,60.30
2018-04-19T05:54:47.360Z,60.00
2018-04-19T05:55:48.436Z,60.00
2018-04-19T05:56:49.492Z,60.00
2018-04-19T05:57:53.552Z,59.80
2018-04-19T05:59:00.563Z,59.70
2018-04-19T06:00:02.542Z,59.40
2018-04-19T06:01:03.648Z,59.80
2018-04-19T06:02:06.290Z,60.20
2018-04-19T06:03:07.398Z,60.10
2018-04-19T06:04:08.435Z,60.10
2018-04-19T06:05:09.571Z,60.00
2018-04-19T06:06:10.643Z,59.60
2018-04-19T06:07:11.723Z,59.30
2018-04-19T06:08:12.804Z,58.90
2018-04-19T06:09:15.199Z,58.80
2018-04-19T06:10:16.293Z,59.40
2018-04-19T06:11:17.392Z,59.30
2018-04-19T06:12:18.473Z,59.00
2018-04-19T06:13:20.272Z,58.90
2018-04-19T06:14:21.359Z,58.70
2018-04-19T06:15:23.166Z,59.00
2018-04-19T06:16:24.262Z,58.90
2018-04-19T06:17:26.108Z,59.00
2018-04-19T06:18:27.229Z,59.00
2018-04-19T06:19:28.332Z,59.00
2018-04-19T06:20:29.402Z,59.00
2018-04-19T06:21:30.460Z,59.00
2018-04-19T06:22:31.546Z,59.00
2018-04-19T06:23:32.647Z,59.00
2018-04-19T06:24:33.729Z,59.10
2018-04-19T06:25:34.817Z,59.00
2018-04-19T06:26:35.914Z,59.10
2018-04-19T06:27:37.712Z,58.40
2018-04-19T06:28:38.763Z,58.40
2018-04-19T06:29:39.815Z,58.20
2018-04-19T06:30:40.904Z,58.10
2018-04-19T06:31:41.963Z,58.00
2018-04-19T06:32:43.754Z,57.80
2018-04-19T06:33:44.828Z,57.80
2018-04-19T06:34:45.878Z,57.70
2018-04-19T06:35:46.953Z,57.50
2018-04-19T06:36:48.030Z,57.40
2018-04-19T06:37:49.079Z,57.30
2018-04-19T06:38:50.874Z,57.10
2018-04-19T06:39:51.960Z,57.00
2018-04-19T06:40:53.041Z,57.00
2018-04-19T06:41:54.100Z,57.10
2018-04-19T06:42:55.175Z,57.50
2018-04-19T06:43:56.248Z,57.50
2018-04-19T06:44:57.318Z,57.60
2018-04-19T06:45:59.158Z,57.40
2018-04-19T06:47:00.267Z,57.40
2018-04-19T06:48:01.443Z,57.40
2018-04-19T06:49:02.568Z,57.50
2018-04-19T06:50:03.650Z,57.40
2018-04-19T06:51:04.734Z,57.20
2018-04-19T06:52:06.586Z,57.10
2018-04-19T06:53:07.651Z,57.10
2018-04-19T06:54:08.734Z,57.00
2018-04-19T06:55:10.538Z,57.30
2018-04-19T06:56:11.608Z,57.40
2018-04-19T06:57:12.657Z,57.40
2018-04-19T06:58:13.735Z,56.90
2018-04-19T06:59:14.799Z,57.10
2018-04-19T07:00:15.891Z,56.70
2018-04-19T07:01:16.968Z,56.80
2018-04-19T07:02:18.058Z,56.80
2018-04-19T07:03:19.188Z,56.50
2018-04-19T07:04:20.235Z,56.40
2018-04-19T07:05:21.368Z,56.10
2018-04-19T07:06:22.439Z,55.90
2018-04-19T07:07:23.504Z,55.90
2018-04-19T07:08:24.566Z,56.00
2018-04-19T07:09:25.675Z,56.00
2018-04-19T07:10:26.713Z,55.80
2018-04-19T07:11:27.788Z,56.10
2018-04-19T07:12:28.862Z,56.20
2018-04-19T07:13:29.948Z,56.20
2018-04-19T07:14:31.022Z,55.50
2018-04-19T07:15:32.088Z,54.90
2018-04-19T07:16:33.203Z,54.70
2018-04-19T07:17:34.275Z,54.40
2018-04-19T07:18:35.349Z,54.10
2018-04-19T07:19:36.412Z,53.40
2018-04-19T07:20:37.503Z,53.70
2018-04-19T07:21:38.576Z,53.20
2018-04-19T07:22:39.672Z,53.10
2018-04-19T07:23:40.769Z,53.40
2018-04-19T07:24:41.854Z,53.50
2018-04-19T07:25:42.909Z,52.90
2018-04-19T07:26:43.990Z,52.60
2018-04-19T07:27:45.092Z,52.50
2018-04-19T07:28:46.147Z,52.50
2018-04-19T07:29:47.231Z,51.70
2018-04-19T07:30:48.300Z,51.50
2018-04-19T07:31:49.392Z,51.70
2018-04-19T07:32:50.450Z,52.50
2018-04-19T07:33:51.524Z,51.70
2018-04-19T07:34:52.598Z,51.40
2018-04-19T07:35:53.670Z,50.70
2018-04-19T07:36:55.502Z,50.20
2018-04-19T07:37:56.559Z,50.10
2018-04-19T07:40:06.876Z,50.00
2018-04-19T07:41:07.951Z,49.80
2018-04-19T07:42:15.826Z,50.80
2018-04-19T07:43:17.636Z,50.10
2018-04-19T07:44:18.713Z,50.10
2018-04-19T07:45:20.511Z,48.80
2018-04-19T07:46:21.572Z,48.80
2018-04-19T07:47:22.638Z,47.90
2018-04-19T07:48:24.435Z,48.40
2018-04-19T07:49:25.519Z,48.30
2018-04-19T07:50:26.602Z,48.00
2018-04-19T07:51:27.698Z,48.10
2018-04-19T07:52:29.490Z,46.50
2018-04-19T07:53:30.568Z,47.20
2018-04-19T07:54:31.637Z,47.00
2018-04-19T07:55:32.777Z,47.30
2018-04-19T07:56:33.844Z,46.50
2018-04-19T07:57:35.667Z,46.70
2018-04-19T07:58:36.749Z,46.60
2018-04-19T07:59:37.795Z,46.80
2018-04-19T08:00:39.614Z,46.00
2018-04-19T08:02:49.417Z,45.60
2018-04-19T08:03:50.542Z,46.00
2018-04-19T08:04:51.620Z,45.80
2018-04-19T08:05:53.424Z,45.40
2018-04-19T08:06:54.480Z,45.40
2018-04-19T08:07:55.623Z,45.20
2018-04-19T08:08:56.699Z,46.30
2018-04-19T08:09:57.787Z,45.30
2018-04-19T08:10:58.847Z,44.00
2018-04-19T08:11:59.946Z,44.50
2018-04-19T08:13:01.009Z,44.80
2018-04-19T08:14:02.088Z,43.90
2018-04-19T08:15:03.199Z,44.10
2018-04-19T08:16:04.255Z,44.40
2018-04-19T08:17:05.348Z,43.90
2018-04-19T08:18:06.450Z,44.10
2018-04-19T08:19:07.519Z,44.00
2018-04-19T08:20:08.613Z,43.80
2018-04-19T08:21:10.444Z,43.30
2018-04-19T08:22:11.523Z,43.30
2018-04-19T08:23:12.587Z,43.00
2018-04-19T08:24:13.688Z,42.90
2018-04-19T08:25:14.752Z,43.00
2018-04-19T08:26:15.812Z,43.00
2018-04-19T08:27:16.926Z,43.10
2018-04-19T08:28:18.006Z,42.50
2018-04-19T08:29:19.090Z,42.20
2018-04-19T08:30:20.159Z,41.30
2018-04-19T08:31:21.973Z,43.00
2018-04-19T08:32:23.067Z,42.70
2018-04-19T08:33:24.129Z,41.40
2018-04-19T08:34:25.211Z,41.60
2018-04-19T08:35:26.289Z,40.20
2018-04-19T08:36:27.407Z,41.40
2018-04-19T08:37:28.522Z,40.80
2018-04-19T08:38:29.599Z,41.50
2018-04-19T08:39:30.702Z,41.50
2018-04-19T08:40:31.770Z,41.50
2018-04-19T08:41:32.873Z,41.50
2018-04-19T08:42:33.943Z,40.70
2018-04-19T08:43:34.991Z,40.80
2018-04-19T08:44:36.054Z,41.00
2018-04-19T08:45:37.150Z,41.50
2018-04-19T08:46:38.202Z,41.50
2018-04-19T08:47:39.288Z,40.30
2018-04-19T08:48:40.431Z,40.60
2018-04-19T08:49:41.506Z,39.90
2018-04-19T08:50:42.625Z,40.40
2018-04-19T08:51:43.696Z,39.80
2018-04-19T08:52:44.815Z,39.80
2018-04-19T08:53:45.872Z,39.70
2018-04-19T08:54:46.989Z,40.00
2018-04-19T08:55:48.067Z,40.00
2018-04-19T08:56:49.131Z,39.40
2018-04-19T08:57:50.192Z,39.10
2018-04-19T08:58:51.247Z,38.70
2018-04-19T08:59:52.334Z,38.70
2018-04-19T09:00:53.400Z,37.40
2018-04-19T09:01:54.475Z,38.00
2018-04-19T09:02:55.563Z,38.10
2018-04-19T09:03:56.672Z,38.20
2018-04-19T09:04:57.727Z,38.10
2018-04-19T09:05:58.811Z,37.20
2018-04-19T09:07:00.627Z,37.70
2018-04-19T09:08:01.769Z,37.60
2018-04-19T09:09:02.817Z,37.80
2018-04-19T09:10:04.637Z,37.90
2018-04-19T09:11:05.688Z,37.80
2018-04-19T09:12:06.747Z,38.70
2018-04-19T09:13:07.829Z,37.70
2018-04-19T09:14:08.909Z,37.70
2018-04-19T09:15:09.974Z,37.40
2018-04-19T09:16:11.044Z,36.50
2018-04-19T09:17:12.126Z,37.10
2018-04-19T09:18:13.186Z,37.90
2018-04-19T09:19:14.262Z,38.30
2018-04-19T09:20:16.066Z,35.90
2018-04-19T09:21:17.145Z,35.80
2018-04-19T09:22:18.944Z,34.80
2018-04-19T09:23:20.032Z,34.80
2018-04-19T09:24:21.111Z,36.40
2018-04-19T09:25:22.243Z,36.80
2018-04-19T09:26:24.115Z,37.30
2018-04-19T09:27:25.170Z,37.20
2018-04-19T09:28:26.258Z,36.40
2018-04-19T09:29:27.333Z,36.90
2018-04-19T09:30:28.408Z,37.00
2018-04-19T09:31:29.516Z,37.10
2018-04-19T09:32:30.562Z,36.20
2018-04-19T09:33:31.635Z,35.80
2018-04-19T09:34:32.692Z,36.60
2018-04-19T09:35:33.758Z,36.80
2018-04-19T09:36:34.803Z,36.50
2018-04-19T09:37:35.854Z,37.00
2018-04-19T09:38:36.931Z,35.40
2018-04-19T09:39:38.015Z,36.00
2018-04-19T09:40:39.076Z,35.90
2018-04-19T09:41:40.123Z,37.00
2018-04-19T09:42:41.914Z,36.50
2018-04-19T09:43:42.996Z,36.50
2018-04-19T09:44:44.803Z,36.40
2018-04-19T09:45:45.867Z,36.30
2018-04-19T09:46:47.696Z,36.60
2018-04-19T09:47:48.775Z,36.60
2018-04-19T09:48:50.600Z,36.20
2018-04-19T09:49:51.685Z,36.20
2018-04-19T09:50:52.756Z,35.60
2018-04-19T09:51:53.863Z,36.50
2018-04-19T09:52:54.881Z,36.10
2018-04-19T09:53:56.051Z,36.00
2018-04-19T09:54:57.026Z,36.70
2018-04-19T09:55:58.097Z,37.70
2018-04-19T09:56:59.161Z,36.90
2018-04-19T09:58:07.263Z,35.80
2018-04-19T09:59:11.155Z,36.90
2018-04-19T10:00:12.970Z,35.80
2018-04-19T10:01:14.043Z,35.80
2018-04-19T10:02:15.134Z,36.20
2018-04-19T10:03:18.107Z,36.20
2018-04-19T10:04:25.322Z,35.90
2018-04-19T10:05:27.151Z,33.90
2018-04-19T10:06:28.224Z,34.20
2018-04-19T10:07:30.015Z,34.80
2018-04-19T10:08:31.074Z,34.70
2018-04-19T10:09:32.921Z,36.20
2018-04-19T10:10:34.012Z,35.70
2018-04-19T10:11:35.079Z,35.30
2018-04-19T10:12:36.170Z,34.40
2018-04-19T10:13:37.256Z,34.90
2018-04-19T10:14:38.366Z,35.50
2018-04-19T10:15:39.431Z,35.40
2018-04-19T10:16:40.491Z,34.40
2018-04-19T10:17:41.563Z,35.10
2018-04-19T10:18:42.628Z,34.50
2018-04-19T10:19:44.451Z,35.80
2018-04-19T10:20:45.518Z,35.80
2018-04-19T10:21:47.320Z,35.70
2018-04-19T10:22:48.387Z,35.70
2018-04-19T10:23:50.192Z,35.80
2018-04-19T10:24:52.015Z,36.00
2018-04-19T10:25:53.427Z,36.00
2018-04-19T10:26:55.231Z,34.60
2018-04-19T10:27:56.290Z,35.20
2018-04-19T10:28:57.390Z,34.70
2018-04-19T10:29:58.487Z,34.60
2018-04-19T10:30:59.559Z,36.20
2018-04-19T10:32:00.650Z,35.30
2018-04-19T10:33:02.459Z,34.70
2018-04-19T10:34:03.592Z,34.80
2018-04-19T10:35:04.698Z,34.70
2018-04-19T10:36:05.842Z,34.80
2018-04-19T10:37:06.951Z,34.80
2018-04-19T10:38:08.091Z,34.90
2018-04-19T10:39:09.175Z,34.90
2018-04-19T10:40:11.014Z,34.40
2018-04-19T10:41:12.147Z,34.40
2018-04-19T10:42:13.187Z,34.10
2018-04-19T10:43:14.472Z,34.90
2018-04-19T10:44:15.536Z,33.80
2018-04-19T10:45:16.672Z,33.80
2018-04-19T10:46:17.755Z,33.80
2018-04-19T10:47:18.843Z,34.90
2018-04-19T10:48:19.975Z,35.10
2018-04-19T10:49:21.096Z,33.90
2018-04-19T10:50:22.164Z,33.80
2018-04-19T10:51:23.241Z,33.60
2018-04-19T10:52:24.305Z,33.70
2018-04-19T10:53:25.397Z,33.90
2018-04-19T10:54:26.451Z,33.60
2018-04-19T10:55:27.507Z,33.80
2018-04-19T10:56:28.612Z,34.00
2018-04-19T10:57:29.667Z,34.20
2018-04-19T10:58:30.744Z,34.40
2018-04-19T10:59:31.819Z,32.50
2018-04-19T11:00:32.895Z,33.10
2018-04-19T11:01:33.984Z,33.00
2018-04-19T11:02:35.101Z,33.40
2018-04-19T11:03:36.196Z,33.50
2018-04-19T11:04:38.016Z,32.80
2018-04-19T11:05:39.099Z,32.80
2018-04-19T11:06:40.194Z,32.80
2018-04-19T11:07:41.299Z,33.20
2018-04-19T11:08:42.324Z,33.10
2018-04-19T11:09:43.415Z,33.20
2018-04-19T11:10:44.492Z,33.30
2018-04-19T11:11:45.557Z,33.40
2018-04-19T11:12:46.662Z,32.80
2018-04-19T11:13:47.800Z,33.10
2018-04-19T11:14:48.953Z,33.00
2018-04-19T11:15:50.783Z,32.80
2018-04-19T11:16:51.876Z,32.80
2018-04-19T11:17:52.961Z,32.40
2018-04-19T11:18:54.083Z,32.70
2018-04-19T11:19:55.157Z,32.60
2018-04-19T11:20:56.227Z,33.00
2018-04-19T11:21:57.303Z,32.70
2018-04-19T11:22:58.399Z,32.90
2018-04-19T11:23:59.460Z,33.00
2018-04-19T11:25:00.532Z,33.30
2018-04-19T11:26:01.616Z,33.50
2018-04-19T11:27:03.440Z,33.50
2018-04-19T11:28:04.525Z,33.40
2018-04-19T11:29:05.581Z,33.50
2018-04-19T11:30:06.642Z,33.50
2018-04-19T11:31:07.791Z,32.40
2018-04-19T11:32:08.858Z,32.40
2018-04-19T11:33:09.939Z,32.40
2018-04-19T11:34:11.026Z,32.70
2018-04-19T11:35:12.083Z,31.60
2018-04-19T11:36:13.164Z,31.90
2018-04-19T11:37:14.227Z,32.30
2018-04-19T11:38:15.336Z,32.80
2018-04-19T11:39:17.118Z,32.60
2018-04-19T11:40:18.179Z,32.60
2018-04-19T11:41:19.248Z,32.40
2018-04-19T11:42:21.057Z,31.80
2018-04-19T11:43:22.102Z,31.80
2018-04-19T11:44:23.184Z,32.30
2018-04-19T11:45:24.253Z,31.10
2018-04-19T11:46:25.335Z,30.40
2018-04-19T11:47:27.151Z,31.60
2018-04-19T11:48:28.223Z,31.60
2018-04-19T11:49:29.285Z,32.00
2018-04-19T11:50:30.376Z,32.70
2018-04-19T11:51:31.468Z,31.10
2018-04-19T11:52:32.539Z,30.00
2018-04-19T11:53:34.337Z,31.90
2018-04-19T11:54:35.434Z,31.90
2018-04-19T11:55:36.528Z,32.00
2018-04-19T11:56:37.629Z,31.40
2018-04-19T11:57:38.719Z,32.60
2018-04-19T11:58:40.543Z,32.00
2018-04-19T11:59:41.650Z,32.00
2018-04-19T12:00:42.735Z,30.20
2018-04-19T12:01:43.843Z,31.90
2018-04-19T12:02:44.921Z,31.40
2018-04-19T12:03:45.991Z,30.40
2018-04-19T12:04:47.070Z,30.60
2018-04-19T12:05:48.908Z,30.40
2018-04-19T12:06:49.987Z,30.40
2018-04-19T12:07:51.046Z,30.50
2018-04-19T12:08:52.147Z,31.40
2018-04-19T12:09:53.247Z,30.90
2018-04-19T12:10:54.317Z,31.60
2018-04-19T12:11:55.383Z,31.30
2018-04-19T12:12:56.449Z,32.40
2018-04-19T12:13:57.528Z,30.70
2018-04-19T12:14:58.595Z,30.70
2018-04-19T12:15:59.708Z,30.50
2018-04-19T12:17:00.775Z,31.30
2018-04-19T12:18:01.854Z,31.00
2018-04-19T12:19:02.919Z,30.30
2018-04-19T12:20:04.756Z,31.40
2018-04-19T12:21:05.902Z,31.30
2018-04-19T12:22:06.975Z,31.20
2018-04-19T12:23:08.072Z,30.10
2018-04-19T12:24:09.876Z,30.40
2018-04-19T12:25:10.949Z,30.20
2018-04-19T12:26:12.043Z,30.00
2018-04-19T12:27:13.138Z,29.80
2018-04-19T12:28:14.360Z,30.10
2018-04-19T12:29:15.454Z,31.60
2018-04-19T12:30:16.533Z,29.80
2018-04-19T12:31:18.347Z,30.30
2018-04-19T12:32:19.424Z,30.30
2018-04-19T12:33:20.481Z,29.80
2018-04-19T12:34:21.541Z,30.00
2018-04-19T12:35:22.617Z,29.70
2018-04-19T12:36:23.684Z,30.00
2018-04-19T12:37:24.769Z,29.80
2018-04-19T12:38:26.577Z,29.60
2018-04-19T12:39:27.655Z,29.60
2018-04-19T12:40:29.459Z,29.80
2018-04-19T12:41:30.527Z,29.70
2018-04-19T12:42:32.355Z,30.00
2018-04-19T12:43:33.463Z,30.00
2018-04-19T12:44:34.509Z,30.30
2018-04-19T12:45:35.599Z,31.80
2018-04-19T12:46:36.664Z,30.70
2018-04-19T12:47:37.788Z,30.50
2018-04-19T12:48:38.852Z,30.70
2018-04-19T12:49:39.966Z,30.60
2018-04-19T12:50:41.011Z,30.30
2018-04-19T12:51:42.086Z,30.60
2018-04-19T12:52:43.151Z,30.00
2018-04-19T12:53:44.220Z,29.90
2018-04-19T12:54:45.295Z,31.20
2018-04-19T12:55:47.107Z,29.30
2018-04-19T12:56:48.167Z,29.40
2018-04-19T12:57:49.266Z,29.60
2018-04-19T12:58:50.339Z,29.40
2018-04-19T12:59:51.424Z,29.30
2018-04-19T13:00:52.465Z,29.30
2018-04-19T13:01:53.525Z,29.50
2018-04-19T13:02:54.583Z,29.20
2018-04-19T13:03:55.652Z,29.40
2018-04-19T13:04:56.756Z,28.50
2018-04-19T13:05:57.837Z,30.00
2018-04-19T13:06:58.907Z,30.00
2018-04-19T13:07:59.984Z,29.20
2018-04-19T13:09:01.047Z,28.50
2018-04-19T13:10:02.113Z,28.50
2018-04-19T13:11:03.182Z,28.50
2018-04-19T13:12:04.990Z,28.80
2018-04-19T13:13:06.047Z,28.50
2018-04-19T13:14:07.138Z,28.50
2018-04-19T13:15:08.244Z,28.60